Burlington International Airport Burlington US
ICAO: KBTV
IATA: BTV
Category: Medium
Scheduled Services: Yes

Elevation: 335 ft
TransAlt. 18000 ft.

Airport Communications:
APP/DEP:121.1
ATIS:123.8
CTAF:118.3
GND:121.9
ANG OPS:125.125
ARNG OPS:41.2
RDO:122.2
TWR:118.3
UNICOM:122.95

KBTV Zoom In..

If Map Doesn't Load, Click Here

Runways:

(A) RW 01 length 3611 ft width 75 ft
---- / hdg 6

(B) RW 15 length 8320 ft width 150 ft
ILS 110.30 / hdg 146

(C) RW 19 length 3611 ft width 75 ft
---- / hdg 186

(D) RW 33 length 8320 ft width 150 ft
ILS 110.30 / hdg 326

Location; KBTV
Day. 23 / Time. 08.54 Zulu
* Altimeter: 30.26
* Temperature: 05° c. 41°f.
* Wind from: 000° Speed 00 kn.
Dewpoint: 03° c.
Visibility: 10 Statute Miles.
Clouds: Clear (automated report).

KBTV 230854Z 00000KT 10SM CLR 05/03 A3026 RMK AO2 SLP247 T00500033 53003


Wind - Calm.

 
 
jpsmedia.com for Web Design worldairports.se 2018   terms of use